sensor_id;sensor_type;location;lat;lon;timestamp;P1;durP1;ratioP1;P2;durP2;ratioP2
75537;SDS011;64121;48.666;8.114;2023-03-01T00:01:34;18.88;;;10.63;;
75537;SDS011;64121;48.666;8.114;2023-03-01T00:03:59;17.42;;;10.18;;
75537;SDS011;64121;48.666;8.114;2023-03-01T00:06:25;15.68;;;9.98;;
75537;SDS011;64121;48.666;8.114;2023-03-01T00:08:51;16.25;;;9.48;;
75537;SDS011;64121;48.666;8.114;2023-03-01T00:11:19;17.52;;;9.65;;
75537;SDS011;64121;48.666;8.114;2023-03-01T00:13:46;16.23;;;9.85;;
75537;SDS011;64121;48.666;8.114;2023-03-01T00:16:14;17.42;;;9.80;;
75537;SDS011;64121;48.666;8.114;2023-03-01T00:18:41;18.02;;;10.43;;
75537;SDS011;64121;48.666;8.114;2023-03-01T00:21:06;23.23;;;11.13;;
75537;SDS011;64121;48.666;8.114;2023-03-01T00:23:33;17.77;;;10.88;;
75537;SDS011;64121;48.666;8.114;2023-03-01T00:25:59;16.85;;;9.88;;
75537;SDS011;64121;48.666;8.114;2023-03-01T00:28:25;17.23;;;10.15;;
75537;SDS011;64121;48.666;8.114;2023-03-01T00:30:51;17.80;;;10.23;;
75537;SDS011;64121;48.666;8.114;2023-03-01T00:33:16;16.48;;;10.07;;
75537;SDS011;64121;48.666;8.114;2023-03-01T00:35:42;16.50;;;10.05;;
75537;SDS011;64121;48.666;8.114;2023-03-01T00:38:08;16.13;;;10.02;;
75537;SDS011;64121;48.666;8.114;2023-03-01T00:40:34;14.52;;;8.75;;
75537;SDS011;64121;48.666;8.114;2023-03-01T00:43:00;18.52;;;9.25;;
75537;SDS011;64121;48.666;8.114;2023-03-01T00:45:27;18.30;;;10.07;;
75537;SDS011;64121;48.666;8.114;2023-03-01T00:47:53;17.67;;;9.65;;
75537;SDS011;64121;48.666;8.114;2023-03-01T00:50:19;19.17;;;9.98;;
75537;SDS011;64121;48.666;8.114;2023-03-01T00:52:45;13.73;;;9.45;;
75537;SDS011;64121;48.666;8.114;2023-03-01T00:55:11;14.77;;;9.02;;
75537;SDS011;64121;48.666;8.114;2023-03-01T00:57:37;15.13;;;8.98;;
75537;SDS011;64121;48.666;8.114;2023-03-01T01:00:03;17.17;;;10.02;;
75537;SDS011;64121;48.666;8.114;2023-03-01T01:02:31;14.65;;;8.63;;
75537;SDS011;64121;48.666;8.114;2023-03-01T01:04:57;15.80;;;9.38;;
75537;SDS011;64121;48.666;8.114;2023-03-01T01:07:23;15.23;;;9.35;;
75537;SDS011;64121;48.666;8.114;2023-03-01T01:09:48;17.27;;;9.52;;
75537;SDS011;64121;48.666;8.114;2023-03-01T01:12:13;16.42;;;9.35;;
75537;SDS011;64121;48.666;8.114;2023-03-01T01:14:39;16.65;;;8.48;;
75537;SDS011;64121;48.666;8.114;2023-03-01T01:17:04;16.80;;;9.98;;
75537;SDS011;64121;48.666;8.114;2023-03-01T01:19:31;18.33;;;9.60;;
75537;SDS011;64121;48.666;8.114;2023-03-01T01:21:56;15.57;;;9.13;;
75537;SDS011;64121;48.666;8.114;2023-03-01T01:24:21;15.98;;;8.80;;
75537;SDS011;64121;48.666;8.114;2023-03-01T01:26:47;15.32;;;9.18;;
75537;SDS011;64121;48.666;8.114;2023-03-01T01:29:12;15.07;;;9.52;;
75537;SDS011;64121;48.666;8.114;2023-03-01T01:31:39;16.90;;;10.45;;
75537;SDS011;64121;48.666;8.114;2023-03-01T01:34:06;16.73;;;9.65;;
75537;SDS011;64121;48.666;8.114;2023-03-01T01:36:38;16.15;;;8.98;;
75537;SDS011;64121;48.666;8.114;2023-03-01T01:39:03;13.35;;;8.20;;
75537;SDS011;64121;48.666;8.114;2023-03-01T01:41:29;16.25;;;9.73;;
75537;SDS011;64121;48.666;8.114;2023-03-01T01:46:41;14.10;;;7.93;;
75537;SDS011;64121;48.666;8.114;2023-03-01T01:49:12;16.80;;;9.65;;
75537;SDS011;64121;48.666;8.114;2023-03-01T01:51:45;14.55;;;8.63;;
75537;SDS011;64121;48.666;8.114;2023-03-01T01:54:14;14.02;;;8.38;;
75537;SDS011;64121;48.666;8.114;2023-03-01T01:56:44;14.23;;;8.95;;
75537;SDS011;64121;48.666;8.114;2023-03-01T01:59:15;16.60;;;8.95;;
75537;SDS011;64121;48.666;8.114;2023-03-01T02:01:41;15.57;;;8.07;;
75537;SDS011;64121;48.666;8.114;2023-03-01T02:04:07;14.13;;;8.38;;
75537;SDS011;64121;48.666;8.114;2023-03-01T02:06:33;15.98;;;8.70;;
75537;SDS011;64121;48.666;8.114;2023-03-01T02:09:04;13.88;;;8.35;;
75537;SDS011;64121;48.666;8.114;2023-03-01T02:11:32;13.35;;;7.75;;
75537;SDS011;64121;48.666;8.114;2023-03-01T02:13:58;14.90;;;9.18;;
75537;SDS011;64121;48.666;8.114;2023-03-01T02:16:24;17.35;;;8.63;;
75537;SDS011;64121;48.666;8.114;2023-03-01T02:18:50;15.20;;;9.07;;
75537;SDS011;64121;48.666;8.114;2023-03-01T02:24:10;17.52;;;8.43;;
75537;SDS011;64121;48.666;8.114;2023-03-01T02:26:55;17.02;;;8.93;;
75537;SDS011;64121;48.666;8.114;2023-03-01T02:29:23;16.30;;;8.95;;
75537;SDS011;64121;48.666;8.114;2023-03-01T02:31:50;15.52;;;8.95;;
75537;SDS011;64121;48.666;8.114;2023-03-01T02:34:18;16.92;;;8.82;;
75537;SDS011;64121;48.666;8.114;2023-03-01T02:36:47;12.65;;;7.93;;
75537;SDS011;64121;48.666;8.114;2023-03-01T02:39:15;14.27;;;8.18;;
75537;SDS011;64121;48.666;8.114;2023-03-01T02:41:44;15.45;;;8.23;;
75537;SDS011;64121;48.666;8.114;2023-03-01T02:44:13;16.58;;;8.68;;
75537;SDS011;64121;48.666;8.114;2023-03-01T02:46:43;13.48;;;8.35;;
75537;SDS011;64121;48.666;8.114;2023-03-01T02:49:21;14.05;;;8.88;;
75537;SDS011;64121;48.666;8.114;2023-03-01T02:54:46;16.25;;;8.82;;
75537;SDS011;64121;48.666;8.114;2023-03-01T02:57:17;15.30;;;8.77;;
75537;SDS011;64121;48.666;8.114;2023-03-01T02:59:44;15.48;;;9.18;;
75537;SDS011;64121;48.666;8.114;2023-03-01T03:02:19;15.13;;;7.95;;
75537;SDS011;64121;48.666;8.114;2023-03-01T03:04:45;16.33;;;8.77;;
75537;SDS011;64121;48.666;8.114;2023-03-01T03:07:10;16.40;;;8.55;;
75537;SDS011;64121;48.666;8.114;2023-03-01T03:09:36;12.95;;;8.85;;
75537;SDS011;64121;48.666;8.114;2023-03-01T03:12:01;14.65;;;8.73;;
75537;SDS011;64121;48.666;8.114;2023-03-01T03:14:26;15.13;;;7.88;;
75537;SDS011;64121;48.666;8.114;2023-03-01T03:16:52;14.73;;;8.07;;
75537;SDS011;64121;48.666;8.114;2023-03-01T03:19:19;18.58;;;8.93;;
75537;SDS011;64121;48.666;8.114;2023-03-01T03:21:44;14.48;;;8.50;;
75537;SDS011;64121;48.666;8.114;2023-03-01T03:24:10;15.13;;;9.50;;
75537;SDS011;64121;48.666;8.114;2023-03-01T03:26:35;13.02;;;8.90;;
75537;SDS011;64121;48.666;8.114;2023-03-01T03:29:01;17.38;;;9.75;;
75537;SDS011;64121;48.666;8.114;2023-03-01T03:31:26;16.75;;;8.18;;
75537;SDS011;64121;48.666;8.114;2023-03-01T03:33:52;15.57;;;9.10;;
75537;SDS011;64121;48.666;8.114;2023-03-01T03:36:19;16.83;;;8.43;;
75537;SDS011;64121;48.666;8.114;2023-03-01T03:38:46;14.50;;;8.70;;
75537;SDS011;64121;48.666;8.114;2023-03-01T03:41:12;17.20;;;9.05;;
75537;SDS011;64121;48.666;8.114;2023-03-01T03:43:38;17.65;;;8.98;;
75537;SDS011;64121;48.666;8.114;2023-03-01T03:46:05;16.20;;;8.90;;
75537;SDS011;64121;48.666;8.114;2023-03-01T03:48:32;16.77;;;9.88;;
75537;SDS011;64121;48.666;8.114;2023-03-01T03:50:58;17.38;;;8.98;;
75537;SDS011;64121;48.666;8.114;2023-03-01T03:53:25;15.82;;;8.95;;
75537;SDS011;64121;48.666;8.114;2023-03-01T03:55:51;13.75;;;7.95;;
75537;SDS011;64121;48.666;8.114;2023-03-01T03:58:17;16.25;;;8.40;;
75537;SDS011;64121;48.666;8.114;2023-03-01T04:00:44;14.80;;;8.43;;
75537;SDS011;64121;48.666;8.114;2023-03-01T04:03:10;12.90;;;8.63;;
75537;SDS011;64121;48.666;8.114;2023-03-01T04:05:37;14.55;;;8.98;;
75537;SDS011;64121;48.666;8.114;2023-03-01T04:08:04;14.25;;;8.93;;
75537;SDS011;64121;48.666;8.114;2023-03-01T04:10:32;16.10;;;8.52;;
75537;SDS011;64121;48.666;8.114;2023-03-01T04:12:59;16.02;;;8.90;;
75537;SDS011;64121;48.666;8.114;2023-03-01T04:15:24;15.73;;;9.10;;
75537;SDS011;64121;48.666;8.114;2023-03-01T04:17:51;14.98;;;8.85;;
75537;SDS011;64121;48.666;8.114;2023-03-01T04:20:19;19.92;;;10.55;;
75537;SDS011;64121;48.666;8.114;2023-03-01T04:22:45;20.00;;;11.00;;
75537;SDS011;64121;48.666;8.114;2023-03-01T04:25:10;17.50;;;10.15;;
75537;SDS011;64121;48.666;8.114;2023-03-01T04:27:37;19.13;;;9.60;;
75537;SDS011;64121;48.666;8.114;2023-03-01T04:30:03;15.40;;;9.20;;
75537;SDS011;64121;48.666;8.114;2023-03-01T04:32:29;18.15;;;9.30;;
75537;SDS011;64121;48.666;8.114;2023-03-01T04:34:54;17.20;;;9.80;;
75537;SDS011;64121;48.666;8.114;2023-03-01T04:37:19;14.70;;;9.55;;
75537;SDS011;64121;48.666;8.114;2023-03-01T04:39:45;15.43;;;8.98;;
75537;SDS011;64121;48.666;8.114;2023-03-01T04:42:10;17.08;;;9.13;;
75537;SDS011;64121;48.666;8.114;2023-03-01T04:44:37;14.57;;;9.45;;
75537;SDS011;64121;48.666;8.114;2023-03-01T04:47:02;14.80;;;7.97;;
75537;SDS011;64121;48.666;8.114;2023-03-01T04:49:28;19.60;;;9.13;;
75537;SDS011;64121;48.666;8.114;2023-03-01T04:51:53;16.00;;;9.88;;
75537;SDS011;64121;48.666;8.114;2023-03-01T04:54:18;16.98;;;9.75;;
75537;SDS011;64121;48.666;8.114;2023-03-01T04:56:43;16.48;;;8.98;;
75537;SDS011;64121;48.666;8.114;2023-03-01T04:59:09;17.63;;;9.38;;
75537;SDS011;64121;48.666;8.114;2023-03-01T05:01:36;16.52;;;9.07;;
75537;SDS011;64121;48.666;8.114;2023-03-01T05:04:01;15.95;;;9.18;;
75537;SDS011;64121;48.666;8.114;2023-03-01T05:06:26;15.02;;;8.77;;
75537;SDS011;64121;48.666;8.114;2023-03-01T05:08:51;17.55;;;9.82;;
75537;SDS011;64121;48.666;8.114;2023-03-01T05:11:17;20.10;;;9.77;;
75537;SDS011;64121;48.666;8.114;2023-03-01T05:13:42;15.27;;;9.15;;
75537;SDS011;64121;48.666;8.114;2023-03-01T05:16:08;19.40;;;9.65;;
75537;SDS011;64121;48.666;8.114;2023-03-01T05:18:35;19.55;;;10.93;;
75537;SDS011;64121;48.666;8.114;2023-03-01T05:21:02;17.17;;;9.20;;
75537;SDS011;64121;48.666;8.114;2023-03-01T05:23:29;17.27;;;8.65;;
75537;SDS011;64121;48.666;8.114;2023-03-01T05:25:57;20.05;;;10.65;;
75537;SDS011;64121;48.666;8.114;2023-03-01T05:28:22;16.10;;;10.05;;
75537;SDS011;64121;48.666;8.114;2023-03-01T05:30:48;18.08;;;10.05;;
75537;SDS011;64121;48.666;8.114;2023-03-01T05:33:13;16.70;;;11.10;;
75537;SDS011;64121;48.666;8.114;2023-03-01T05:35:40;20.90;;;11.45;;
75537;SDS011;64121;48.666;8.114;2023-03-01T05:38:06;22.02;;;11.40;;
75537;SDS011;64121;48.666;8.114;2023-03-01T05:40:32;18.60;;;9.77;;
75537;SDS011;64121;48.666;8.114;2023-03-01T05:42:58;20.45;;;11.30;;
75537;SDS011;64121;48.666;8.114;2023-03-01T05:45:24;27.33;;;13.93;;
75537;SDS011;64121;48.666;8.114;2023-03-01T05:47:51;20.13;;;11.98;;
75537;SDS011;64121;48.666;8.114;2023-03-01T05:50:17;20.20;;;11.85;;
75537;SDS011;64121;48.666;8.114;2023-03-01T05:52:46;21.15;;;10.93;;
75537;SDS011;64121;48.666;8.114;2023-03-01T05:55:12;15.80;;;8.98;;
75537;SDS011;64121;48.666;8.114;2023-03-01T05:57:37;20.50;;;10.38;;
75537;SDS011;64121;48.666;8.114;2023-03-01T06:00:03;21.35;;;9.55;;
75537;SDS011;64121;48.666;8.114;2023-03-01T06:02:29;19.38;;;9.43;;
75537;SDS011;64121;48.666;8.114;2023-03-01T06:04:54;18.90;;;10.60;;
75537;SDS011;64121;48.666;8.114;2023-03-01T06:07:19;18.52;;;10.25;;
75537;SDS011;64121;48.666;8.114;2023-03-01T06:09:46;16.17;;;10.15;;
75537;SDS011;64121;48.666;8.114;2023-03-01T06:12:11;17.75;;;10.48;;
75537;SDS011;64121;48.666;8.114;2023-03-01T06:14:37;15.07;;;8.93;;
75537;SDS011;64121;48.666;8.114;2023-03-01T06:17:02;19.13;;;10.27;;
75537;SDS011;64121;48.666;8.114;2023-03-01T06:19:27;17.50;;;10.35;;
75537;SDS011;64121;48.666;8.114;2023-03-01T06:21:53;17.45;;;10.27;;
75537;SDS011;64121;48.666;8.114;2023-03-01T06:24:18;18.52;;;9.23;;
75537;SDS011;64121;48.666;8.114;2023-03-01T06:26:45;18.80;;;11.32;;
75537;SDS011;64121;48.666;8.114;2023-03-01T06:29:10;20.85;;;11.30;;
75537;SDS011;64121;48.666;8.114;2023-03-01T06:31:35;21.77;;;11.23;;
75537;SDS011;64121;48.666;8.114;2023-03-01T06:34:01;18.13;;;10.13;;
75537;SDS011;64121;48.666;8.114;2023-03-01T06:36:26;20.90;;;11.15;;
75537;SDS011;64121;48.666;8.114;2023-03-01T06:38:52;15.43;;;9.85;;
75537;SDS011;64121;48.666;8.114;2023-03-01T06:41:17;19.77;;;11.02;;
75537;SDS011;64121;48.666;8.114;2023-03-01T06:43:44;20.05;;;9.98;;
75537;SDS011;64121;48.666;8.114;2023-03-01T06:46:09;15.75;;;9.88;;
75537;SDS011;64121;48.666;8.114;2023-03-01T06:48:34;19.10;;;10.05;;
75537;SDS011;64121;48.666;8.114;2023-03-01T06:51:00;20.60;;;10.48;;
75537;SDS011;64121;48.666;8.114;2023-03-01T06:53:26;22.00;;;13.20;;
75537;SDS011;64121;48.666;8.114;2023-03-01T06:55:53;20.25;;;11.20;;
75537;SDS011;64121;48.666;8.114;2023-03-01T06:58:19;24.95;;;11.45;;
75537;SDS011;64121;48.666;8.114;2023-03-01T07:00:46;17.15;;;10.43;;
75537;SDS011;64121;48.666;8.114;2023-03-01T07:03:11;17.08;;;9.68;;
75537;SDS011;64121;48.666;8.114;2023-03-01T07:05:36;19.15;;;11.18;;
75537;SDS011;64121;48.666;8.114;2023-03-01T07:08:02;19.10;;;11.68;;
75537;SDS011;64121;48.666;8.114;2023-03-01T07:10:27;22.58;;;11.80;;
75537;SDS011;64121;48.666;8.114;2023-03-01T07:12:54;22.55;;;11.93;;
75537;SDS011;64121;48.666;8.114;2023-03-01T07:15:20;21.25;;;11.07;;
75537;SDS011;64121;48.666;8.114;2023-03-01T07:17:47;19.90;;;11.80;;
75537;SDS011;64121;48.666;8.114;2023-03-01T07:20:12;25.70;;;11.77;;
75537;SDS011;64121;48.666;8.114;2023-03-01T07:22:39;19.27;;;11.35;;
75537;SDS011;64121;48.666;8.114;2023-03-01T07:25:05;23.38;;;12.52;;
75537;SDS011;64121;48.666;8.114;2023-03-01T07:27:30;22.15;;;11.52;;
75537;SDS011;64121;48.666;8.114;2023-03-01T07:29:56;24.00;;;12.38;;
75537;SDS011;64121;48.666;8.114;2023-03-01T07:32:21;21.88;;;12.63;;
75537;SDS011;64121;48.666;8.114;2023-03-01T07:34:48;17.95;;;10.13;;
75537;SDS011;64121;48.666;8.114;2023-03-01T07:37:13;21.77;;;12.02;;
75537;SDS011;64121;48.666;8.114;2023-03-01T07:39:38;17.92;;;10.98;;
75537;SDS011;64121;48.666;8.114;2023-03-01T07:42:04;21.75;;;12.35;;
75537;SDS011;64121;48.666;8.114;2023-03-01T07:44:29;23.33;;;12.68;;
75537;SDS011;64121;48.666;8.114;2023-03-01T07:46:54;20.35;;;11.40;;
75537;SDS011;64121;48.666;8.114;2023-03-01T07:49:20;19.85;;;11.30;;
75537;SDS011;64121;48.666;8.114;2023-03-01T07:51:46;23.20;;;12.63;;
75537;SDS011;64121;48.666;8.114;2023-03-01T07:54:12;20.38;;;11.65;;
75537;SDS011;64121;48.666;8.114;2023-03-01T07:56:37;21.65;;;11.68;;
75537;SDS011;64121;48.666;8.114;2023-03-01T07:59:02;18.38;;;11.63;;
75537;SDS011;64121;48.666;8.114;2023-03-01T08:01:28;19.73;;;11.38;;
75537;SDS011;64121;48.666;8.114;2023-03-01T08:03:53;19.05;;;11.68;;
75537;SDS011;64121;48.666;8.114;2023-03-01T08:06:19;24.00;;;11.57;;
75537;SDS011;64121;48.666;8.114;2023-03-01T08:08:45;19.95;;;11.68;;
75537;SDS011;64121;48.666;8.114;2023-03-01T08:11:12;18.40;;;11.68;;
75537;SDS011;64121;48.666;8.114;2023-03-01T08:13:38;20.50;;;11.63;;
75537;SDS011;64121;48.666;8.114;2023-03-01T08:16:04;20.02;;;12.32;;
75537;SDS011;64121;48.666;8.114;2023-03-01T08:18:32;19.48;;;12.13;;
75537;SDS011;64121;48.666;8.114;2023-03-01T08:21:00;19.33;;;11.77;;
75537;SDS011;64121;48.666;8.114;2023-03-01T08:23:26;18.02;;;11.40;;
75537;SDS011;64121;48.666;8.114;2023-03-01T08:25:53;20.90;;;11.88;;
75537;SDS011;64121;48.666;8.114;2023-03-01T08:28:19;18.45;;;11.38;;
75537;SDS011;64121;48.666;8.114;2023-03-01T08:30:44;20.25;;;12.15;;
75537;SDS011;64121;48.666;8.114;2023-03-01T08:33:09;19.98;;;11.90;;
75537;SDS011;64121;48.666;8.114;2023-03-01T08:35:35;22.55;;;12.30;;
75537;SDS011;64121;48.666;8.114;2023-03-01T08:38:00;24.23;;;12.18;;
75537;SDS011;64121;48.666;8.114;2023-03-01T08:40:25;20.60;;;11.93;;
75537;SDS011;64121;48.666;8.114;2023-03-01T08:42:52;25.00;;;12.32;;
75537;SDS011;64121;48.666;8.114;2023-03-01T08:45:17;18.35;;;11.52;;
75537;SDS011;64121;48.666;8.114;2023-03-01T08:47:43;21.45;;;12.50;;
75537;SDS011;64121;48.666;8.114;2023-03-01T08:50:09;20.05;;;12.73;;
75537;SDS011;64121;48.666;8.114;2023-03-01T08:52:34;22.15;;;12.23;;
75537;SDS011;64121;48.666;8.114;2023-03-01T08:55:00;22.73;;;14.27;;
75537;SDS011;64121;48.666;8.114;2023-03-01T08:57:25;20.33;;;11.82;;
75537;SDS011;64121;48.666;8.114;2023-03-01T08:59:52;22.85;;;12.95;;
75537;SDS011;64121;48.666;8.114;2023-03-01T09:02:17;21.30;;;11.95;;
75537;SDS011;64121;48.666;8.114;2023-03-01T09:04:43;21.50;;;12.38;;
75537;SDS011;64121;48.666;8.114;2023-03-01T09:07:09;18.83;;;11.30;;
75537;SDS011;64121;48.666;8.114;2023-03-01T09:09:35;21.83;;;12.57;;
75537;SDS011;64121;48.666;8.114;2023-03-01T09:12:01;20.58;;;11.93;;
75537;SDS011;64121;48.666;8.114;2023-03-01T09:14:27;21.67;;;13.85;;
75537;SDS011;64121;48.666;8.114;2023-03-01T09:16:54;20.90;;;11.50;;
75537;SDS011;64121;48.666;8.114;2023-03-01T09:19:19;23.10;;;13.00;;
75537;SDS011;64121;48.666;8.114;2023-03-01T09:21:45;19.90;;;12.48;;
75537;SDS011;64121;48.666;8.114;2023-03-01T09:24:11;19.77;;;13.73;;
75537;SDS011;64121;48.666;8.114;2023-03-01T09:26:38;20.58;;;12.48;;
75537;SDS011;64121;48.666;8.114;2023-03-01T09:29:04;20.83;;;11.95;;
75537;SDS011;64121;48.666;8.114;2023-03-01T09:31:29;21.92;;;12.75;;
75537;SDS011;64121;48.666;8.114;2023-03-01T09:33:56;20.55;;;12.85;;
75537;SDS011;64121;48.666;8.114;2023-03-01T09:36:22;23.58;;;12.50;;
75537;SDS011;64121;48.666;8.114;2023-03-01T09:38:49;20.35;;;11.93;;
75537;SDS011;64121;48.666;8.114;2023-03-01T09:41:19;21.00;;;11.55;;
75537;SDS011;64121;48.666;8.114;2023-03-01T09:43:57;22.88;;;13.45;;
75537;SDS011;64121;48.666;8.114;2023-03-01T09:46:26;19.67;;;11.93;;
75537;SDS011;64121;48.666;8.114;2023-03-01T09:48:54;22.10;;;12.10;;
75537;SDS011;64121;48.666;8.114;2023-03-01T09:51:25;17.52;;;11.35;;
75537;SDS011;64121;48.666;8.114;2023-03-01T09:53:54;17.05;;;11.93;;
75537;SDS011;64121;48.666;8.114;2023-03-01T09:56:20;23.17;;;13.60;;
75537;SDS011;64121;48.666;8.114;2023-03-01T09:58:51;20.55;;;12.63;;
75537;SDS011;64121;48.666;8.114;2023-03-01T10:01:26;22.45;;;13.95;;
75537;SDS011;64121;48.666;8.114;2023-03-01T10:04:00;21.63;;;13.20;;
75537;SDS011;64121;48.666;8.114;2023-03-01T10:06:33;18.60;;;12.23;;
75537;SDS011;64121;48.666;8.114;2023-03-01T10:08:59;21.48;;;12.88;;
75537;SDS011;64121;48.666;8.114;2023-03-01T10:11:30;18.77;;;12.52;;
75537;SDS011;64121;48.666;8.114;2023-03-01T10:13:58;21.90;;;11.40;;
75537;SDS011;64121;48.666;8.114;2023-03-01T10:16:28;20.55;;;13.55;;
75537;SDS011;64121;48.666;8.114;2023-03-01T10:19:04;21.08;;;12.52;;
75537;SDS011;64121;48.666;8.114;2023-03-01T10:21:30;22.15;;;12.93;;
75537;SDS011;64121;48.666;8.114;2023-03-01T10:24:08;22.38;;;13.02;;
75537;SDS011;64121;48.666;8.114;2023-03-01T10:26:39;22.02;;;13.27;;
75537;SDS011;64121;48.666;8.114;2023-03-01T10:29:12;23.27;;;16.05;;
75537;SDS011;64121;48.666;8.114;2023-03-01T10:31:39;22.88;;;12.32;;
75537;SDS011;64121;48.666;8.114;2023-03-01T10:34:12;20.65;;;12.63;;
75537;SDS011;64121;48.666;8.114;2023-03-01T10:36:40;23.95;;;13.30;;
75537;SDS011;64121;48.666;8.114;2023-03-01T10:39:11;19.52;;;12.82;;
75537;SDS011;64121;48.666;8.114;2023-03-01T10:41:40;21.27;;;13.57;;
75537;SDS011;64121;48.666;8.114;2023-03-01T10:44:34;21.30;;;14.05;;
75537;SDS011;64121;48.666;8.114;2023-03-01T10:47:13;23.85;;;12.95;;
75537;SDS011;64121;48.666;8.114;2023-03-01T10:49:44;24.15;;;13.43;;
75537;SDS011;64121;48.666;8.114;2023-03-01T10:52:18;26.80;;;15.38;;
75537;SDS011;64121;48.666;8.114;2023-03-01T10:54:50;24.95;;;14.93;;
75537;SDS011;64121;48.666;8.114;2023-03-01T10:57:24;27.02;;;15.30;;
75537;SDS011;64121;48.666;8.114;2023-03-01T11:00:00;26.27;;;15.80;;
75537;SDS011;64121;48.666;8.114;2023-03-01T11:02:28;20.90;;;12.60;;
75537;SDS011;64121;48.666;8.114;2023-03-01T11:05:00;21.67;;;13.00;;
75537;SDS011;64121;48.666;8.114;2023-03-01T11:07:27;20.27;;;12.45;;
75537;SDS011;64121;48.666;8.114;2023-03-01T11:09:54;22.80;;;13.63;;
75537;SDS011;64121;48.666;8.114;2023-03-01T11:12:19;20.55;;;12.70;;
75537;SDS011;64121;48.666;8.114;2023-03-01T11:14:46;23.10;;;14.18;;
75537;SDS011;64121;48.666;8.114;2023-03-01T11:17:13;21.15;;;13.10;;
75537;SDS011;64121;48.666;8.114;2023-03-01T11:19:41;23.02;;;13.43;;
75537;SDS011;64121;48.666;8.114;2023-03-01T11:22:10;22.27;;;12.75;;
75537;SDS011;64121;48.666;8.114;2023-03-01T11:24:39;18.15;;;13.00;;
75537;SDS011;64121;48.666;8.114;2023-03-01T11:27:10;21.02;;;13.90;;
75537;SDS011;64121;48.666;8.114;2023-03-01T11:29:42;23.70;;;14.98;;
75537;SDS011;64121;48.666;8.114;2023-03-01T11:32:11;18.73;;;12.43;;
75537;SDS011;64121;48.666;8.114;2023-03-01T11:34:40;20.92;;;13.90;;
75537;SDS011;64121;48.666;8.114;2023-03-01T11:37:12;23.20;;;12.98;;
75537;SDS011;64121;48.666;8.114;2023-03-01T11:39:47;23.48;;;13.55;;
75537;SDS011;64121;48.666;8.114;2023-03-01T11:42:20;22.65;;;13.95;;
75537;SDS011;64121;48.666;8.114;2023-03-01T11:44:52;22.30;;;12.80;;
75537;SDS011;64121;48.666;8.114;2023-03-01T11:47:27;23.85;;;15.15;;
75537;SDS011;64121;48.666;8.114;2023-03-01T11:50:14;19.52;;;13.05;;
75537;SDS011;64121;48.666;8.114;2023-03-01T11:52:48;20.65;;;12.32;;
75537;SDS011;64121;48.666;8.114;2023-03-01T11:55:38;22.95;;;14.20;;
75537;SDS011;64121;48.666;8.114;2023-03-01T11:58:22;20.40;;;12.90;;
75537;SDS011;64121;48.666;8.114;2023-03-01T12:01:00;22.65;;;13.45;;
75537;SDS011;64121;48.666;8.114;2023-03-01T12:03:34;21.17;;;12.07;;
75537;SDS011;64121;48.666;8.114;2023-03-01T12:06:12;22.77;;;13.02;;
75537;SDS011;64121;48.666;8.114;2023-03-01T12:09:04;17.63;;;13.05;;
75537;SDS011;64121;48.666;8.114;2023-03-01T12:11:42;22.08;;;13.38;;
75537;SDS011;64121;48.666;8.114;2023-03-01T12:14:32;25.33;;;13.80;;
75537;SDS011;64121;48.666;8.114;2023-03-01T12:17:20;23.90;;;13.05;;
75537;SDS011;64121;48.666;8.114;2023-03-01T12:20:08;21.52;;;12.52;;
75537;SDS011;64121;48.666;8.114;2023-03-01T12:22:42;19.50;;;12.73;;
75537;SDS011;64121;48.666;8.114;2023-03-01T12:25:22;20.13;;;13.52;;
75537;SDS011;64121;48.666;8.114;2023-03-01T12:28:01;21.13;;;14.48;;
75537;SDS011;64121;48.666;8.114;2023-03-01T12:30:39;24.42;;;14.45;;
75537;SDS011;64121;48.666;8.114;2023-03-01T12:33:18;19.08;;;12.63;;
75537;SDS011;64121;48.666;8.114;2023-03-01T12:36:01;22.83;;;13.55;;
75537;SDS011;64121;48.666;8.114;2023-03-01T12:38:45;20.00;;;12.23;;
75537;SDS011;64121;48.666;8.114;2023-03-01T12:41:23;23.33;;;13.27;;
75537;SDS011;64121;48.666;8.114;2023-03-01T12:43:59;21.30;;;13.80;;
75537;SDS011;64121;48.666;8.114;2023-03-01T12:46:38;19.08;;;12.57;;
75537;SDS011;64121;48.666;8.114;2023-03-01T12:49:14;23.65;;;13.50;;
75537;SDS011;64121;48.666;8.114;2023-03-01T12:51:43;19.75;;;13.10;;
75537;SDS011;64121;48.666;8.114;2023-03-01T12:54:15;21.75;;;13.65;;
75537;SDS011;64121;48.666;8.114;2023-03-01T12:56:42;19.77;;;14.13;;
75537;SDS011;64121;48.666;8.114;2023-03-01T12:59:11;24.92;;;13.25;;
75537;SDS011;64121;48.666;8.114;2023-03-01T13:01:45;22.83;;;13.77;;
75537;SDS011;64121;48.666;8.114;2023-03-01T13:04:18;19.13;;;13.43;;
75537;SDS011;64121;48.666;8.114;2023-03-01T13:07:01;19.95;;;12.57;;
75537;SDS011;64121;48.666;8.114;2023-03-01T13:09:37;20.50;;;12.48;;
75537;SDS011;64121;48.666;8.114;2023-03-01T13:15:13;25.13;;;13.15;;
75537;SDS011;64121;48.666;8.114;2023-03-01T13:17:50;19.10;;;13.80;;
75537;SDS011;64121;48.666;8.114;2023-03-01T13:20:21;21.23;;;13.98;;
75537;SDS011;64121;48.666;8.114;2023-03-01T13:22:49;21.05;;;13.98;;
75537;SDS011;64121;48.666;8.114;2023-03-01T13:25:26;21.15;;;12.95;;
75537;SDS011;64121;48.666;8.114;2023-03-01T13:27:51;19.10;;;13.18;;
75537;SDS011;64121;48.666;8.114;2023-03-01T13:30:57;19.60;;;13.13;;
75537;SDS011;64121;48.666;8.114;2023-03-01T13:33:42;20.45;;;12.52;;
75537;SDS011;64121;48.666;8.114;2023-03-01T13:36:09;17.65;;;12.57;;
75537;SDS011;64121;48.666;8.114;2023-03-01T13:38:37;18.40;;;12.57;;
75537;SDS011;64121;48.666;8.114;2023-03-01T13:41:16;18.70;;;13.48;;
75537;SDS011;64121;48.666;8.114;2023-03-01T13:44:02;20.88;;;12.55;;
75537;SDS011;64121;48.666;8.114;2023-03-01T13:46:38;25.00;;;13.88;;
75537;SDS011;64121;48.666;8.114;2023-03-01T13:49:03;24.02;;;14.10;;
75537;SDS011;64121;48.666;8.114;2023-03-01T13:51:29;18.73;;;11.73;;
75537;SDS011;64121;48.666;8.114;2023-03-01T13:53:55;20.35;;;14.07;;
75537;SDS011;64121;48.666;8.114;2023-03-01T13:56:24;21.92;;;12.32;;
75537;SDS011;64121;48.666;8.114;2023-03-01T13:58:52;18.58;;;12.43;;
75537;SDS011;64121;48.666;8.114;2023-03-01T14:01:24;19.15;;;11.88;;
75537;SDS011;64121;48.666;8.114;2023-03-01T14:03:53;19.17;;;13.23;;
75537;SDS011;64121;48.666;8.114;2023-03-01T14:06:20;22.50;;;14.02;;
75537;SDS011;64121;48.666;8.114;2023-03-01T14:08:47;18.67;;;12.00;;
75537;SDS011;64121;48.666;8.114;2023-03-01T14:11:20;22.60;;;13.15;;
75537;SDS011;64121;48.666;8.114;2023-03-01T14:14:09;21.50;;;14.75;;
75537;SDS011;64121;48.666;8.114;2023-03-01T14:16:45;23.92;;;14.25;;
75537;SDS011;64121;48.666;8.114;2023-03-01T14:21:44;20.63;;;13.02;;
75537;SDS011;64121;48.666;8.114;2023-03-01T14:24:15;20.60;;;12.63;;
75537;SDS011;64121;48.666;8.114;2023-03-01T14:26:42;18.87;;;11.50;;
75537;SDS011;64121;48.666;8.114;2023-03-01T14:29:22;20.60;;;13.05;;
75537;SDS011;64121;48.666;8.114;2023-03-01T14:31:48;18.85;;;12.25;;
75537;SDS011;64121;48.666;8.114;2023-03-01T14:34:18;22.17;;;13.65;;
75537;SDS011;64121;48.666;8.114;2023-03-01T14:36:45;18.55;;;12.65;;
75537;SDS011;64121;48.666;8.114;2023-03-01T14:39:15;18.20;;;12.27;;
75537;SDS011;64121;48.666;8.114;2023-03-01T14:41:42;25.25;;;13.40;;
75537;SDS011;64121;48.666;8.114;2023-03-01T14:44:11;20.08;;;12.80;;
75537;SDS011;64121;48.666;8.114;2023-03-01T14:46:41;19.03;;;12.90;;
75537;SDS011;64121;48.666;8.114;2023-03-01T14:49:09;21.55;;;13.18;;